Latest Weather Observations for Marree Airport

IDS60801

Issued at 4:11 pm CST Sunday 18 August 2019 (issued every 10 minutes, with the page automatically refreshed every 10 minutes)

About weather observations | Map of weather stations | Latest weather observations for SA | Other Formats
Station Details ID: 017126 Name: MARREE AERO Lat: -29.66 Lon: 138.07 Height: 50.0 m
Data from the previous 72 hours. | See also: Recent months at Marree Airport
Date/Time
CST
Temp
°C
App
Temp
°C
Dew
Point
°C
Rel
Hum
%
Delta-T
°C
Wind Press
QNH
hPa
Press
MSL
hPa
Rain since
9am
mm
Dir  Spd
km/h
Gust
km/h
Spd
kts
Gust
kts
18/04:00pm 18.4 7.4 -5.6 19 9.3 WSW 44 59 24 32 1018.3 1018.3 -
18/03:30pm 18.8 8.0 -5.3 19 9.4 WSW 43 54 23 29 1018.1 1018.1 -
18/03:00pm 18.7 8.7 -4.7 20 9.3 WSW 39 52 21 28 1018.0 1018.0 -
18/02:30pm 19.0 9.2 -3.2 22 9.1 WSW 39 52 21 28 1018.0 1018.0 -
18/02:00pm 18.8 8.6 -3.3 22 9.0 WSW 41 50 22 27 1018.0 1018.0 -
18/01:34pm 18.5 8.6 -3.6 22 9.0 WSW 39 59 21 32 1018.1 1018.1 -
18/01:30pm 18.5 8.8 -2.4 24 8.7 WSW 39 54 21 29 1018.2 1018.2 -
18/01:00pm 17.6 7.7 -1.1 28 7.9 WSW 41 56 22 30 1018.4 1018.4 -
18/12:30pm 18.2 8.5 -2.1 25 8.4 WSW 39 54 21 29 1018.7 1018.7 -
18/12:00pm 17.7 8.5 -1.5 27 8.0 WSW 37 59 20 32 1018.8 1018.8 -
18/11:57am 18.1 9.1 -0.2 29 7.9 WSW 37 59 20 32 1018.8 1018.8 -
18/12:30am 18.3 10.5 -7.9 16 9.7 WNW 26 39 14 21 1012.9 1012.8 0.0
18/12:08am 15.2 7.7 -8.2 19 8.3 WNW 24 50 13 27 1013.0 1012.9 0.0
18/12:04am 13.6 7.1 -8.3 21 7.6 N 19 50 10 27 1013.1 1013.0 0.0
18/12:00am 13.8 8.0 -8.7 20 7.8 NNE 15 17 8 9 1011.7 1011.6 0.0
 
Date/Time
CST
Temp
°C
App
Temp
°C
Dew
Point
°C
Rel
Hum
%
Delta-T
°C
Wind Press
QNH
hPa
Press
MSL
hPa
Rain since
9am
mm
Dir  Spd
km/h
Gust
km/h
Spd
kts
Gust
kts
17/11:30pm 14.8 9.0 -8.6 19 8.2 N 15 17 8 9 1012.0 1011.9 0.0
17/11:00pm 16.3 9.8 -8.0 18 8.8 NNE 19 20 10 11 1012.2 1012.1 0.0
17/10:30pm 17.2 10.5 -8.0 17 9.2 NNE 20 24 11 13 1012.4 1012.3 0.0
17/10:00pm 17.4 10.8 -8.6 16 9.4 NNE 19 22 10 12 1013.0 1012.9 0.0
17/09:30pm 17.0 10.5 -8.2 17 9.1 NNE 19 20 10 11 1013.2 1013.1 0.0
17/09:00pm 17.4 11.2 -8.6 16 9.4 NNE 17 19 9 10 1013.5 1013.5 0.0
17/08:30pm 17.8 12.0 -9.1 15 9.7 NNE 15 20 8 11 1013.6 1013.6 0.0
17/08:00pm 18.8 14.1 -9.2 14 10.2 N 9 13 5 7 1014.0 1014.0 0.0
17/07:30pm 20.1 15.0 -9.1 13 10.8 NNW 11 13 6 7 1013.8 1013.8 0.0
17/07:00pm 20.6 15.1 -9.8 12 11.1 N 13 17 7 9 1013.4 1013.4 0.0
17/06:30pm 22.3 16.4 -9.5 11 11.9 N 15 17 8 9 1013.2 1013.1 0.0
17/06:00pm 24.4 17.8 -9.1 10 12.9 NNW 19 22 10 12 1013.2 1013.1 0.0
17/05:30pm 26.2 18.7 -9.1 9 13.9 N 24 33 13 18 1013.2 1013.1 0.0
17/05:00pm 27.1 18.4 -9.9 8 14.5 N 30 35 16 19 1013.0 1012.9 0.0
17/04:30pm 27.4 19.0 -9.7 8 14.6 NNE 28 35 15 19 1013.0 1012.9 0.0
17/04:00pm 27.2 18.8 -9.9 8 14.5 N 28 35 15 19 1013.3 1013.3 0.0
17/03:30pm 27.6 18.9 -9.6 8 14.7 N 30 41 16 22 1013.5 1013.5 0.0
17/03:00pm 27.2 19.0 -8.4 9 14.3 N 28 35 15 19 1013.7 1013.7 0.0
17/02:30pm 27.2 18.6 -8.4 9 14.3 N 30 37 16 20 1014.1 1014.1 0.0
17/02:00pm 26.7 18.9 -7.4 10 13.9 N 26 35 14 19 1014.6 1014.6 0.0
17/01:30pm 26.0 17.1 -6.7 11 13.4 N 32 43 17 23 1015.1 1015.1 0.0
17/01:00pm 25.9 17.3 -4.6 13 13.0 N 32 43 17 23 1015.6 1015.6 0.0
17/12:30pm 25.5 16.9 -3.9 14 12.6 NNE 32 41 17 22 1016.3 1016.3 0.0
17/12:00pm 25.1 17.4 -3.3 15 12.3 N 28 37 15 20 1016.8 1016.8 0.0
17/11:30am 24.1 16.3 -4.1 15 11.9 NNE 28 39 15 21 1017.1 1017.1 0.0
17/11:00am 23.8 16.5 -2.7 17 11.5 NNE 26 33 14 18 1017.5 1017.5 0.0
17/10:30am 21.7 15.7 -1.6 21 10.1 NNE 20 28 11 15 1017.9 1017.9 0.0
17/10:00am 20.0 14.2 -1.7 23 9.3 NE 19 26 10 14 1018.0 1018.0 0.0
17/09:30am 18.8 14.2 -1.1 26 8.5 ENE 13 17 7 9 1018.2 1018.2 0.0
17/09:00am 17.2 12.7 -0.1 31 7.4 ESE 13 17 7 9 1018.2 1018.2 0.0
17/08:30am 15.5 11.4 2.3 41 5.9 SE 13 15 7 8 1018.5 1018.5 0.0
17/08:00am 14.3 10.5 3.7 49 4.8 SSE 13 15 7 8 1018.4 1018.4 0.0
17/07:30am 11.4 7.5 3.4 58 3.5 SSE 13 17 7 9 1018.2 1018.2 0.0
17/07:00am 12.1 8.0 4.1 58 3.6 SSE 15 15 8 8 1017.9 1017.9 0.0
17/06:30am 11.7 8.4 2.7 54 3.9 SSE 9 11 5 6 1017.9 1017.9 0.0
17/06:00am 12.9 9.8 3.8 54 4.1 E 9 13 5 7 1017.7 1017.7 0.0
17/05:30am 13.3 9.5 3.7 52 4.3 ESE 13 15 7 8 1017.5 1017.5 0.0
17/05:00am 12.7 8.1 1.4 46 4.8 SE 15 19 8 10 1017.3 1017.3 0.0
17/04:30am 12.6 8.6 0.4 43 5.1 SE 11 15 6 8 1017.1 1017.1 0.0
17/04:00am 12.9 9.0 1.0 44 5.0 SE 11 11 6 6 1017.3 1017.3 0.0
17/03:30am 13.0 9.8 0.7 43 5.2 SE 7 9 4 5 1017.6 1017.6 0.0
17/03:00am 13.3 11.1 1.0 43 5.2 SE 2 6 1 3 1017.8 1017.8 0.0
17/02:30am 13.5 11.0 1.8 45 5.1 SE 4 9 2 5 1017.8 1017.8 0.0
17/02:00am 13.6 9.8 1.9 45 5.1 SE 11 13 6 7 1018.0 1018.0 0.0
17/01:30am 13.4 9.6 1.7 45 5.0 SE 11 13 6 7 1018.4 1018.4 0.0
17/01:00am 14.3 10.6 2.5 45 5.2 SSE 11 15 6 8 1018.4 1018.4 0.0
17/12:30am 14.4 10.1 3.2 47 5.0 S 15 15 8 8 1018.6 1018.6 0.0
17/12:00am 13.9 9.5 2.5 46 5.0 SSE 15 17 8 9 1018.7 1018.7 0.0
 
Date/Time
CST
Temp
°C
App
Temp
°C
Dew
Point
°C
Rel
Hum
%
Delta-T
°C
Wind Press
QNH
hPa
Press
MSL
hPa
Rain since
9am
mm
Dir  Spd
km/h
Gust
km/h
Spd
kts
Gust
kts
16/11:30pm 14.0 9.9 2.3 45 5.1 SSE 13 15 7 8 1019.0 1019.0 0.0
16/11:00pm 14.7 11.0 2.3 43 5.5 SSE 11 13 6 7 1019.0 1019.0 0.0
16/10:30pm 15.2 11.5 2.1 41 5.8 SSE 11 13 6 7 1019.4 1019.4 0.0
16/10:00pm 15.8 10.9 2.2 40 6.1 SE 17 19 9 10 1019.4 1019.4 0.0
16/09:30pm 15.5 10.9 1.3 38 6.2 SE 15 17 8 9 1019.6 1019.6 0.0
16/09:00pm 15.7 11.1 1.4 38 6.3 SE 15 17 8 9 1019.6 1019.6 0.0
16/08:30pm 16.5 11.6 1.8 37 6.5 SSE 17 19 9 10 1019.7 1019.7 0.0
16/08:00pm 17.4 12.0 1.0 33 7.2 S 19 20 10 11 1019.5 1019.5 0.0
16/07:30pm 19.3 13.6 0.4 28 8.4 SSE 20 26 11 14 1019.2 1019.2 0.0
16/07:00pm 18.2 12.2 -11.6 12 10.2 NNW 15 15 8 8 1018.5 1018.5 0.0
16/06:30pm 20.4 14.8 -11.0 11 11.2 NW 13 13 7 7 1018.2 1018.2 0.0
16/06:00pm 22.2 16.6 -10.8 10 12.0 WNW 13 13 7 7 1018.1 1018.1 0.0
16/05:30pm 24.6 18.7 -10.3 9 13.2 WNW 15 17 8 9 1018.0 1018.0 0.0
16/05:00pm 25.7 20.2 -9.5 9 13.7 WNW 13 17 7 9 1017.8 1017.8 0.0
16/04:30pm 26.2 20.3 -10.6 8 14.1 WNW 15 22 8 12 1017.6 1017.6 0.0
16/04:00pm 26.2 20.3 -10.6 8 14.1 WNW 15 22 8 12 1017.6 1017.6 0.0
16/03:30pm 25.8 19.6 -9.4 9 13.7 NW 17 24 9 13 1017.6 1017.6 0.0
16/03:00pm 27.1 20.4 -9.9 8 14.5 WNW 19 26 10 14 1017.7 1017.7 0.0
16/02:30pm 26.0 19.8 -9.3 9 13.8 WNW 17 28 9 15 1017.8 1017.8 0.0
16/02:00pm 25.8 19.6 -9.4 9 13.7 NW 17 28 9 15 1018.2 1018.2 0.0
16/01:30pm 25.1 18.4 -10.0 9 13.4 NW 19 26 10 14 1018.5 1018.5 0.0
16/01:00pm 24.8 18.2 -8.8 10 13.1 NW 19 32 10 17 1019.0 1019.0 0.0
16/12:30pm 23.9 17.3 -9.5 10 12.7 NW 19 32 10 17 1019.4 1019.4 0.0
16/12:00pm 23.2 17.5 -7.7 12 12.1 NNW 15 22 8 12 1020.0 1020.0 0.0
16/11:30am 21.6 16.2 -8.0 13 11.3 N 13 20 7 11 1020.4 1020.4 0.0
16/11:00am 20.7 16.1 -7.7 14 10.8 N 9 13 5 7 1020.7 1020.7 0.0
16/10:30am 19.3 15.3 -7.1 16 10.0 NE 6 9 3 5 1020.9 1020.9 0.0
16/10:00am 17.4 12.9 -7.1 18 9.1 NE 9 13 5 7 1021.0 1021.0 0.0
16/09:30am 15.4 10.8 -7.4 20 8.2 E 9 11 5 6 1021.0 1021.0 0.0
16/09:00am 13.4 8.4 -7.9 22 7.4 ESE 11 15 6 8 1021.1 1021.1 0.0
16/08:30am 10.7 5.3 -8.5 25 6.4 ESE 13 15 7 8 1021.2 1021.2 0.0
16/08:00am 7.8 2.3 -9.5 28 5.4 ESE 13 15 7 8 1020.9 1020.9 0.0
16/07:30am 6.1 0.9 -10.1 30 4.8 SSE 11 13 6 7 1020.9 1020.9 0.0
16/07:00am 5.0 -1.3 -9.9 33 4.4 SSW 17 20 9 11 1020.5 1020.5 0.0
16/06:30am 5.3 -1.0 -10.4 31 4.6 SSE 17 19 9 10 1019.7 1019.7 0.0
16/06:00am 6.8 0.0 -9.1 31 4.9 S 20 28 11 15 1019.8 1019.8 0.0
16/05:30am 5.0 -1.3 -10.7 31 4.5 SSE 17 19 9 10 1018.8 1018.8 0.0
16/05:00am 4.2 -1.8 -11.4 31 4.6 SSE 15 19 8 10 1018.7 1018.7 0.0
16/04:30am 4.2 -2.2 -12.2 29 4.8 SE 17 19 9 10 1018.6 1018.6 0.0
16/04:00am 5.9 1.1 -10.3 30 4.8 ESE 9 11 5 6 1018.9 1018.9 0.0
16/03:30am 5.2 0.7 -11.4 29 4.7 ESE 7 9 4 5 1018.9 1018.9 0.0
16/03:00am 6.3 2.8 -11.3 27 5.1 NNE 2 7 1 4 1018.9 1018.9 0.0
16/02:30am 8.3 4.5 -9.6 27 5.6 NNE 4 7 2 4 1018.9 1018.9 0.0
16/02:00am 8.4 4.3 -8.6 29 5.5 NNE 6 9 3 5 1018.9 1018.9 0.0
16/01:30am 7.9 3.7 -9.5 28 5.4 N 6 7 3 4 1018.9 1018.9 0.0
16/01:00am 7.0 3.1 -11.2 26 5.4 NE 4 7 2 4 1018.9 1018.9 0.0
16/12:30am 7.6 4.5 -10.6 26 5.5 CALM 0 6 0 3 1019.1 1019.1 0.0
16/12:00am 8.6 5.5 -10.3 25 5.8 CALM 0 0 0 0 1019.6 1019.6 0.0
 
Date/Time
CST
Temp
°C
App
Temp
°C
Dew
Point
°C
Rel
Hum
%
Delta-T
°C
Wind Press
QNH
hPa
Press
MSL
hPa
Rain since
9am
mm
Dir  Spd
km/h
Gust
km/h
Spd
kts
Gust
kts
15/11:30pm 9.3 5.9 -9.7 25 6.0 NE 2 6 1 3 1019.8 1019.8 0.0
15/11:00pm 9.0 4.8 -10.5 24 6.0 NE 6 7 3 4 1020.2 1020.2 0.0
15/10:30pm 9.5 5.3 -10.0 24 6.1 E 6 6 3 3 1020.3 1020.3 0.0
15/10:00pm 9.9 5.7 -10.2 23 6.3 E 6 6 3 3 1020.4 1020.4 0.0
15/09:30pm 11.1 6.9 -9.8 22 6.7 ENE 6 6 3 3 1020.6 1020.6 0.0
15/09:00pm 12.0 7.7 -9.0 22 7.0 NNE 7 9 4 5 1020.6 1020.6 0.0
15/08:30pm 14.4 9.4 -8.2 20 7.9 WNW 11 13 6 7 1020.6 1020.6 0.0
15/08:00pm 15.2 9.9 -7.6 20 8.2 NNW 13 13 7 7 1020.4 1020.4 0.0
15/07:30pm 14.2 8.4 -8.4 20 7.9 NW 15 17 8 9 1020.4 1020.4 0.0
15/07:00pm 15.0 9.2 -8.4 19 8.2 NW 15 15 8 8 1020.1 1020.1 0.0
15/06:30pm 17.3 11.6 -7.9 17 9.2 NW 15 15 8 8 1019.8 1019.8 0.0
15/06:00pm 19.8 14.1 -7.5 15 10.3 NW 15 19 8 10 1019.6 1019.6 0.0
15/05:30pm 21.5 15.0 -8.0 13 11.3 NNW 19 24 10 13 1019.4 1019.4 0.0
15/05:00pm 22.5 15.9 -7.3 13 11.7 NNW 20 30 11 16 1019.4 1019.4 0.0
15/04:30pm 22.6 15.1 -8.2 12 11.8 NNW 24 33 13 18 1019.4 1019.4 0.0

Other formats

Comma delimited format used in spreadsheet applications
http://www.bom.gov.au/fwo/IDS60801/IDS60801.95480.axf

JavaScript Object Notation format (JSON) in row-major order
http://www.bom.gov.au/fwo/IDS60801/IDS60801.95480.json

Data quality

Most of these data are generated automatically and are frequently updated. Quality checks on data are not normally performed. It is possible for incorrect values to appear. Refer to information at About Latest Weather Observations and please check the disclaimer before using these data.